createdAt,value
2018-03-11T00:01:54.120Z,14.00
2018-03-11T00:04:22.393Z,17.53
2018-03-11T00:06:50.692Z,14.40
2018-03-11T00:09:18.973Z,16.63
2018-03-11T00:11:47.320Z,17.83
2018-03-11T00:14:15.592Z,16.27
2018-03-11T00:16:43.882Z,19.07
2018-03-11T00:19:12.152Z,16.40
2018-03-11T00:21:40.416Z,15.60
2018-03-11T00:24:08.725Z,18.60
2018-03-11T00:26:36.997Z,19.03
2018-03-11T00:29:05.368Z,17.60
2018-03-11T00:31:33.660Z,19.77
2018-03-11T00:34:01.965Z,19.27
2018-03-11T00:36:31.100Z,18.47
2018-03-11T00:38:59.380Z,21.27
2018-03-11T00:41:27.663Z,20.40
2018-03-11T00:43:56.024Z,18.70
2018-03-11T00:46:24.301Z,22.30
2018-03-11T00:48:52.592Z,22.20
2018-03-11T00:51:20.872Z,25.20
2018-03-11T00:53:49.176Z,23.43
2018-03-11T00:56:17.457Z,23.45
2018-03-11T00:58:45.796Z,27.10
2018-03-11T01:01:14.086Z,19.17
2018-03-11T01:03:42.372Z,28.80
2018-03-11T01:06:10.649Z,19.30
2018-03-11T01:08:39.000Z,20.40
2018-03-11T01:11:07.300Z,22.67
2018-03-11T01:13:35.669Z,20.00
2018-03-11T01:16:04.767Z,28.83
2018-03-11T01:18:33.121Z,23.50
2018-03-11T01:21:01.392Z,18.87
2018-03-11T01:23:29.679Z,24.20
2018-03-11T01:25:58.060Z,23.63
2018-03-11T01:28:26.324Z,21.90
2018-03-11T01:30:54.608Z,26.67
2018-03-11T01:33:22.884Z,20.53
2018-03-11T01:35:51.170Z,24.80
2018-03-11T01:38:19.439Z,20.13
2018-03-11T01:40:47.812Z,31.77
2018-03-11T01:43:16.076Z,23.70
2018-03-11T01:45:44.364Z,23.60
2018-03-11T01:48:12.649Z,21.10
2018-03-11T01:50:40.913Z,27.77
2018-03-11T01:53:10.116Z,19.17
2018-03-11T01:55:38.402Z,18.50
2018-03-11T01:58:06.792Z,19.63
2018-03-11T02:00:36.306Z,20.30
2018-03-11T02:03:04.664Z,20.00
2018-03-11T02:05:33.072Z,24.30
2018-03-11T02:08:01.416Z,29.07
2018-03-11T02:10:29.713Z,28.93
2018-03-11T02:12:57.984Z,20.27
2018-03-11T02:15:26.345Z,18.93
2018-03-11T02:17:54.724Z,23.05
2018-03-11T02:20:23.094Z,17.73
2018-03-11T02:22:51.387Z,22.20
2018-03-11T02:25:19.758Z,17.77
2018-03-11T02:27:48.847Z,17.97
2018-03-11T02:30:17.133Z,17.83
2018-03-11T02:32:45.424Z,18.07
2018-03-11T02:35:13.709Z,17.73
2018-03-11T02:37:41.993Z,18.90
2018-03-11T02:40:10.336Z,20.43
2018-03-11T02:42:38.712Z,19.12
2018-03-11T02:45:06.983Z,19.43
2018-03-11T02:47:35.282Z,16.67
2018-03-11T02:50:03.558Z,18.40
2018-03-11T02:52:31.827Z,22.47
2018-03-11T02:55:00.122Z,18.63
2018-03-11T02:57:28.467Z,27.00
2018-03-11T02:59:56.743Z,16.70
2018-03-11T03:02:25.133Z,17.13
2018-03-11T03:04:53.412Z,16.70
2018-03-11T03:07:21.688Z,16.07
2018-03-11T03:09:49.965Z,16.30
2018-03-11T03:12:18.248Z,15.83
2018-03-11T03:14:46.524Z,17.37
2018-03-11T03:17:14.892Z,30.23
2018-03-11T03:19:43.264Z,17.20
2018-03-11T03:22:11.542Z,40.27
2018-03-11T03:24:39.823Z,19.87
2018-03-11T03:27:08.109Z,19.93
2018-03-11T03:29:36.464Z,18.37
2018-03-11T03:32:04.848Z,17.13
2018-03-11T03:34:33.119Z,16.80
2018-03-11T03:37:01.411Z,14.77
2018-03-11T03:39:29.696Z,17.13
2018-03-11T03:41:58.053Z,15.50
2018-03-11T03:44:26.310Z,17.10
2018-03-11T03:46:54.598Z,18.20
2018-03-11T03:49:22.869Z,16.67
2018-03-11T03:51:51.142Z,15.07
2018-03-11T03:54:19.450Z,16.73
2018-03-11T03:56:47.811Z,14.80
2018-03-11T03:59:16.185Z,17.03
2018-03-11T04:01:44.484Z,34.90
2018-03-11T04:04:12.752Z,15.20
2018-03-11T04:06:41.035Z,13.73
2018-03-11T04:09:09.393Z,14.57
2018-03-11T04:11:37.683Z,15.57
2018-03-11T04:14:05.946Z,15.17
2018-03-11T04:16:34.208Z,16.83
2018-03-11T04:19:02.494Z,16.20
2018-03-11T04:21:30.790Z,17.50
2018-03-11T04:23:59.052Z,16.30
2018-03-11T04:26:27.356Z,17.17
2018-03-11T04:28:55.804Z,16.10
2018-03-11T04:31:24.190Z,16.60
2018-03-11T04:33:52.464Z,18.77
2018-03-11T04:36:20.772Z,16.23
2018-03-11T04:38:49.032Z,20.63
2018-03-11T04:41:17.398Z,17.03
2018-03-11T04:43:45.685Z,16.70
2018-03-11T04:46:13.940Z,18.67
2018-03-11T04:48:42.228Z,16.70
2018-03-11T04:51:10.613Z,18.80
2018-03-11T04:53:38.977Z,19.80
2018-03-11T04:56:07.271Z,18.27
2018-03-11T04:58:35.536Z,20.33
2018-03-11T05:01:03.826Z,20.10
2018-03-11T05:03:32.091Z,17.47
2018-03-11T05:06:00.373Z,16.70
2018-03-11T05:08:28.651Z,17.97
2018-03-11T05:10:56.919Z,19.20
2018-03-11T05:13:25.202Z,16.60
2018-03-11T05:15:53.568Z,17.30
2018-03-11T05:18:21.839Z,16.10
2018-03-11T05:20:50.226Z,17.37
2018-03-11T05:23:18.501Z,17.90
2018-03-11T05:25:46.766Z,16.70
2018-03-11T05:28:15.053Z,15.00
2018-03-11T05:30:43.428Z,18.33
2018-03-11T05:33:11.696Z,16.80
2018-03-11T05:35:39.991Z,15.90
2018-03-11T05:38:08.267Z,15.80
2018-03-11T05:40:36.635Z,15.47
2018-03-11T05:43:05.008Z,19.07
2018-03-11T05:45:33.280Z,16.33
2018-03-11T05:48:01.573Z,14.93
2018-03-11T05:50:29.861Z,13.73
2018-03-11T05:52:58.218Z,15.10
2018-03-11T05:55:26.499Z,15.00
2018-03-11T05:57:54.875Z,14.07
2018-03-11T06:00:23.136Z,13.53
2018-03-11T06:02:51.432Z,15.00
2018-03-11T06:05:19.696Z,15.30
2018-03-11T06:07:47.993Z,16.00
2018-03-11T06:10:16.251Z,13.60
2018-03-11T06:12:44.633Z,18.50
2018-03-11T06:15:12.907Z,22.07
2018-03-11T06:17:41.289Z,24.70
2018-03-11T06:20:09.665Z,16.93
2018-03-11T06:22:37.950Z,14.73
2018-03-11T06:25:06.524Z,13.43
2018-03-11T06:27:34.797Z,12.60
2018-03-11T06:30:03.086Z,14.80
2018-03-11T06:32:32.133Z,18.43
2018-03-11T06:35:01.177Z,20.70
2018-03-11T06:37:29.468Z,24.27
2018-03-11T06:39:57.760Z,24.60
2018-03-11T06:42:26.100Z,17.27
2018-03-11T06:44:54.476Z,26.57
2018-03-11T06:47:22.770Z,16.87
2018-03-11T06:49:51.046Z,17.73
2018-03-11T06:52:19.328Z,20.10
2018-03-11T06:54:47.621Z,17.37
2018-03-11T06:57:15.959Z,15.57
2018-03-11T06:59:44.235Z,15.63
2018-03-11T07:02:12.529Z,13.67
2018-03-11T07:04:40.797Z,14.20
2018-03-11T07:07:09.092Z,13.73
2018-03-11T07:09:37.371Z,11.30
2018-03-11T07:12:05.651Z,10.98
2018-03-11T07:14:33.940Z,10.10
2018-03-11T07:17:02.207Z,9.47
2018-03-11T07:19:30.476Z,10.77
2018-03-11T07:21:58.762Z,9.50
2018-03-11T07:24:27.027Z,10.07
2018-03-11T07:26:55.381Z,9.40
2018-03-11T07:29:23.744Z,8.40
2018-03-11T07:31:52.123Z,8.83
2018-03-11T07:34:20.404Z,11.30
2018-03-11T07:36:48.672Z,10.03
2018-03-11T07:39:16.964Z,9.23
2018-03-11T07:41:45.337Z,11.20
2018-03-11T07:44:13.600Z,10.40
2018-03-11T07:46:41.888Z,9.33
2018-03-11T07:49:10.151Z,9.30
2018-03-11T07:51:38.432Z,10.60
2018-03-11T07:54:06.727Z,10.60
2018-03-11T07:56:35.104Z,10.03
2018-03-11T07:59:03.436Z,9.93
2018-03-11T08:01:32.463Z,10.50
2018-03-11T08:04:00.724Z,9.63
2018-03-11T08:06:29.016Z,9.27
2018-03-11T08:08:57.316Z,8.53
2018-03-11T08:11:25.611Z,8.63
2018-03-11T08:13:53.872Z,8.13
2018-03-11T08:16:22.141Z,8.70
2018-03-11T08:18:50.423Z,9.80
2018-03-11T08:21:18.694Z,8.00
2018-03-11T08:23:46.962Z,8.40
2018-03-11T08:26:15.240Z,8.37
2018-03-11T08:28:43.619Z,6.70
2018-03-11T08:31:11.987Z,9.13
2018-03-11T08:33:40.269Z,8.13
2018-03-11T08:36:08.563Z,9.93
2018-03-11T08:38:36.850Z,9.60
2018-03-11T08:41:05.193Z,9.90
2018-03-11T08:43:33.464Z,10.70
2018-03-11T08:46:01.837Z,9.67
2018-03-11T08:48:30.100Z,9.53
2018-03-11T08:50:58.407Z,7.73
2018-03-11T08:53:26.804Z,7.33
2018-03-11T08:55:55.056Z,7.90
2018-03-11T08:58:23.316Z,7.13
2018-03-11T09:00:51.596Z,8.57
2018-03-11T09:03:19.884Z,6.80
2018-03-11T09:05:48.255Z,6.60
2018-03-11T09:08:16.539Z,7.00
2018-03-11T09:10:44.817Z,6.47
2018-03-11T09:13:13.076Z,6.30
2018-03-11T09:15:41.509Z,7.50
2018-03-11T09:18:09.737Z,6.80
2018-03-11T09:20:38.013Z,6.47
2018-03-11T09:23:06.392Z,6.90
2018-03-11T09:25:34.774Z,5.40
2018-03-11T09:28:03.044Z,6.00
2018-03-11T09:30:31.325Z,5.67
2018-03-11T09:32:59.587Z,5.50
2018-03-11T09:35:27.840Z,6.53
2018-03-11T09:37:56.887Z,5.63
2018-03-11T09:40:25.157Z,5.50
2018-03-11T09:42:53.437Z,6.60
2018-03-11T09:45:21.712Z,5.33
2018-03-11T09:47:50.079Z,7.00
2018-03-11T09:50:18.347Z,4.83
2018-03-11T09:52:46.627Z,5.37
2018-03-11T09:55:14.902Z,4.90
2018-03-11T09:57:43.167Z,5.83
2018-03-11T10:00:11.441Z,5.60
2018-03-11T10:02:39.704Z,5.50
2018-03-11T10:05:08.724Z,5.03
2018-03-11T10:07:37.005Z,5.70
2018-03-11T10:10:05.269Z,5.97
2018-03-11T10:12:33.656Z,4.60
2018-03-11T10:15:01.921Z,4.73
2018-03-11T10:17:30.216Z,5.23
2018-03-11T10:19:58.492Z,4.80
2018-03-11T10:22:26.764Z,5.97
2018-03-11T10:24:55.036Z,5.73
2018-03-11T10:27:23.310Z,5.50
2018-03-11T10:29:51.561Z,5.70
2018-03-11T10:32:20.683Z,5.97
2018-03-11T10:34:48.952Z,6.20
2018-03-11T10:37:17.288Z,6.60
2018-03-11T10:39:45.650Z,6.30
2018-03-11T10:42:13.976Z,5.80
2018-03-11T10:44:42.266Z,7.20
2018-03-11T10:47:10.542Z,6.03
2018-03-11T10:49:39.113Z,6.40
2018-03-11T10:52:07.392Z,5.90
2018-03-11T10:54:35.769Z,6.00
2018-03-11T10:57:04.026Z,5.77
2018-03-11T10:59:33.113Z,5.70
2018-03-11T11:02:02.132Z,6.77
2018-03-11T11:04:34.156Z,5.93
2018-03-11T11:07:02.490Z,6.80
2018-03-11T11:09:30.762Z,6.30
2018-03-11T11:11:59.109Z,5.90
2018-03-11T11:14:28.177Z,5.70
2018-03-11T11:16:56.521Z,6.60
2018-03-11T11:19:24.895Z,6.60
2018-03-11T11:21:53.175Z,6.57
2018-03-11T11:24:21.634Z,5.53
2018-03-11T11:26:50.592Z,5.10
2018-03-11T11:29:19.211Z,5.03
2018-03-11T11:31:47.704Z,4.30
2018-03-11T11:34:16.051Z,5.00
2018-03-11T11:36:45.179Z,5.93
2018-03-11T11:39:13.444Z,5.60
2018-03-11T11:41:41.859Z,4.90
2018-03-11T11:44:10.214Z,4.30
2018-03-11T11:46:38.472Z,4.30
2018-03-11T11:49:06.782Z,3.33
2018-03-11T11:51:35.159Z,2.90
2018-03-11T11:54:03.826Z,2.77
2018-03-11T11:56:32.717Z,1.93
2018-03-11T11:59:01.506Z,2.27
2018-03-11T12:01:29.887Z,1.97
2018-03-11T12:03:58.312Z,1.90
2018-03-11T12:06:27.820Z,1.60
2018-03-11T12:08:57.785Z,1.80
2018-03-11T12:11:27.569Z,2.00
2018-03-11T12:13:57.325Z,1.47
2018-03-11T12:16:27.192Z,1.07
2018-03-11T12:18:57.299Z,1.47
2018-03-11T12:21:27.157Z,1.17
2018-03-11T12:23:57.085Z,1.07
2018-03-11T12:26:27.268Z,1.33
2018-03-11T12:28:58.003Z,1.17
2018-03-11T12:31:28.609Z,1.10
2018-03-11T12:33:58.527Z,1.33
2018-03-11T12:36:28.339Z,1.17
2018-03-11T12:38:58.107Z,1.60
2018-03-11T12:41:28.045Z,1.37
2018-03-11T12:43:58.079Z,1.43
2018-03-11T12:46:27.936Z,1.20
2018-03-11T12:48:58.687Z,1.30
2018-03-11T12:51:28.512Z,1.27
2018-03-11T12:53:58.475Z,1.60
2018-03-11T12:56:28.205Z,1.30
2018-03-11T12:58:59.034Z,1.50
2018-03-11T13:01:29.831Z,1.70
2018-03-11T13:03:59.547Z,0.90
2018-03-11T13:06:29.503Z,1.03
2018-03-11T13:09:00.239Z,1.50
2018-03-11T13:11:30.919Z,1.10
2018-03-11T13:14:00.824Z,1.40
2018-03-11T13:16:30.477Z,1.07
2018-03-11T13:19:01.123Z,0.90
2018-03-11T13:21:30.876Z,1.23
2018-03-11T13:24:00.815Z,1.40
2018-03-11T13:26:30.841Z,1.80
2018-03-11T13:29:00.735Z,0.80
2018-03-11T13:31:30.873Z,0.70
2018-03-11T13:37:13.147Z,1.40
2018-03-11T13:40:00.447Z,0.90
2018-03-11T13:42:31.024Z,1.10
2018-03-11T13:45:18.541Z,0.80
2018-03-11T13:47:47.970Z,0.80
2018-03-11T13:50:17.895Z,1.30
2018-03-11T13:53:05.078Z,1.03
2018-03-11T13:55:34.993Z,0.90
2018-03-11T14:01:18.461Z,1.10
2018-03-11T14:03:48.510Z,0.90
2018-03-11T14:06:19.205Z,1.07
2018-03-11T14:08:49.194Z,1.00
2018-03-11T14:11:19.095Z,0.90
2018-03-11T14:13:48.836Z,0.80
2018-03-11T14:16:18.793Z,0.87
2018-03-11T14:18:48.713Z,0.77
2018-03-11T14:21:19.467Z,0.87
2018-03-11T14:23:50.032Z,0.80
2018-03-11T14:26:19.981Z,0.73
2018-03-11T14:28:49.899Z,0.80
2018-03-11T14:31:19.996Z,0.77
2018-03-11T14:33:49.961Z,0.80
2018-03-11T14:36:20.440Z,0.90
2018-03-11T14:38:50.295Z,1.50
2018-03-11T14:41:20.923Z,3.10
2018-03-11T14:43:50.656Z,1.33
2018-03-11T14:46:20.562Z,0.70
2018-03-11T14:48:51.116Z,0.80
2018-03-11T14:51:21.038Z,0.60
2018-03-11T14:53:51.090Z,0.80
2018-03-11T14:56:20.987Z,0.70
2018-03-11T14:58:50.788Z,0.83
2018-03-11T15:01:20.523Z,0.73
2018-03-11T15:03:50.544Z,0.93
2018-03-11T15:06:20.702Z,0.70
2018-03-11T15:08:50.686Z,0.80
2018-03-11T15:11:21.000Z,0.57
2018-03-11T15:13:50.553Z,0.53
2018-03-11T15:16:20.355Z,0.60
2018-03-11T15:18:50.139Z,0.70
2018-03-11T15:21:20.038Z,0.90
2018-03-11T15:23:50.028Z,0.67
2018-03-11T15:26:19.908Z,1.10
2018-03-11T15:28:49.908Z,1.17
2018-03-11T15:31:20.877Z,1.17
2018-03-11T15:33:50.727Z,1.13
2018-03-11T15:36:21.791Z,1.37
2018-03-11T15:38:51.609Z,1.00
2018-03-11T15:41:21.501Z,1.10
2018-03-11T15:43:52.181Z,0.80
2018-03-11T15:46:22.062Z,1.00
2018-03-11T15:48:51.724Z,0.77
2018-03-11T15:51:21.676Z,1.00
2018-03-11T15:53:51.622Z,0.90
2018-03-11T15:56:22.367Z,0.93
2018-03-11T15:58:52.294Z,1.00
2018-03-11T16:01:22.404Z,2.43
2018-03-11T16:03:52.302Z,0.80
2018-03-11T16:06:23.044Z,0.87
2018-03-11T16:08:52.808Z,0.77
2018-03-11T16:11:22.785Z,0.87
2018-03-11T16:13:52.575Z,0.70
2018-03-11T16:16:23.276Z,0.80
2018-03-11T16:18:53.135Z,0.77
2018-03-11T16:21:23.291Z,0.60
2018-03-11T16:23:53.127Z,1.10
2018-03-11T16:26:23.089Z,0.80
2018-03-11T16:28:53.011Z,0.90
2018-03-11T16:31:23.035Z,0.90
2018-03-11T16:33:52.774Z,2.43
2018-03-11T16:36:22.871Z,0.80
2018-03-11T16:38:53.030Z,1.10
2018-03-11T16:41:23.783Z,0.98
2018-03-11T16:43:54.360Z,0.87
2018-03-11T16:46:24.507Z,1.17
2018-03-11T16:48:54.490Z,1.20
2018-03-11T16:51:24.351Z,0.90
2018-03-11T16:53:55.034Z,1.10
2018-03-11T16:56:25.077Z,1.23
2018-03-11T16:58:54.932Z,1.43
2018-03-11T17:01:25.669Z,1.00
2018-03-11T17:03:55.472Z,1.23
2018-03-11T17:06:26.241Z,1.27
2018-03-11T17:08:56.086Z,1.40
2018-03-11T17:11:26.740Z,0.90
2018-03-11T17:13:56.546Z,1.10
2018-03-11T17:16:27.176Z,1.07
2018-03-11T17:18:57.357Z,1.00
2018-03-11T17:21:27.294Z,1.00
2018-03-11T17:23:57.373Z,1.40
2018-03-11T17:26:27.476Z,1.87
2018-03-11T17:28:57.361Z,1.27
2018-03-11T17:31:27.945Z,2.30
2018-03-11T17:33:57.823Z,2.50
2018-03-11T17:36:28.623Z,1.73
2018-03-11T17:38:58.507Z,3.57
2018-03-11T17:41:28.534Z,1.77
2018-03-11T17:43:58.706Z,1.57
2018-03-11T17:46:29.367Z,2.47
2018-03-11T17:48:59.138Z,1.30
2018-03-11T17:51:29.223Z,2.17
2018-03-11T17:53:59.162Z,1.37
2018-03-11T17:56:29.130Z,1.37
2018-03-11T17:58:59.042Z,1.40
2018-03-11T18:01:29.093Z,1.83
2018-03-11T18:03:58.912Z,1.00
2018-03-11T18:06:29.009Z,1.23
2018-03-11T18:08:59.818Z,1.63
2018-03-11T18:11:29.737Z,1.20
2018-03-11T18:13:59.578Z,1.50
2018-03-11T18:16:29.778Z,2.00
2018-03-11T18:18:59.580Z,1.80
2018-03-11T18:21:29.497Z,1.90
2018-03-11T18:24:02.981Z,1.87
2018-03-11T18:26:33.563Z,1.60
2018-03-11T18:29:03.326Z,1.70
2018-03-11T18:31:34.271Z,4.03
2018-03-11T18:34:04.040Z,2.73
2018-03-11T18:36:34.007Z,1.33
2018-03-11T18:39:03.871Z,1.67
2018-03-11T18:41:34.240Z,1.70
2018-03-11T18:44:03.943Z,1.57
2018-03-11T18:46:33.749Z,1.97
2018-03-11T18:49:03.754Z,1.90
2018-03-11T18:51:34.565Z,1.73
2018-03-11T18:54:05.504Z,1.97
2018-03-11T18:56:35.563Z,2.23
2018-03-11T18:59:05.397Z,1.77
2018-03-11T19:01:35.043Z,2.03
2018-03-11T19:04:04.862Z,2.87
2018-03-11T19:06:34.814Z,2.37
2018-03-11T19:09:05.638Z,2.27
2018-03-11T19:11:36.471Z,3.00
2018-03-11T19:14:06.269Z,2.20
2018-03-11T19:16:37.253Z,2.77
2018-03-11T19:19:07.351Z,2.20
2018-03-11T19:21:38.230Z,2.60
2018-03-11T19:24:08.221Z,2.93
2018-03-11T19:26:38.333Z,2.70
2018-03-11T19:29:08.361Z,3.40
2018-03-11T19:31:38.370Z,2.40
2018-03-11T19:34:08.215Z,2.93
2018-03-11T19:36:38.164Z,2.42
2018-03-11T19:39:08.795Z,2.40
2018-03-11T19:41:39.542Z,2.67
2018-03-11T19:44:09.967Z,3.20
2018-03-11T19:46:40.742Z,2.33
2018-03-11T19:49:10.520Z,2.50
2018-03-11T19:51:40.378Z,2.87
2018-03-11T19:54:10.388Z,2.50
2018-03-11T19:56:40.319Z,2.60
2018-03-11T19:59:10.120Z,2.70
2018-03-11T20:01:40.160Z,2.60
2018-03-11T20:04:11.235Z,2.60
2018-03-11T20:06:41.489Z,2.40
2018-03-11T20:09:11.994Z,2.77
2018-03-11T20:11:42.040Z,2.80
2018-03-11T20:14:12.307Z,2.67
2018-03-11T20:16:42.605Z,2.90
2018-03-11T20:19:13.853Z,2.30
2018-03-11T20:21:44.778Z,2.83
2018-03-11T20:24:14.803Z,2.27
2018-03-11T20:26:44.862Z,2.30
2018-03-11T20:29:14.771Z,2.83
2018-03-11T20:31:44.711Z,2.20
2018-03-11T20:34:14.463Z,2.73
2018-03-11T20:36:44.935Z,2.30
2018-03-11T20:39:14.833Z,3.53
2018-03-11T20:41:44.802Z,2.40
2018-03-11T20:44:15.523Z,3.23
2018-03-11T20:46:46.147Z,2.90
2018-03-11T20:49:15.823Z,2.43
2018-03-11T20:51:46.503Z,2.60
2018-03-11T20:54:16.280Z,2.30
2018-03-11T20:56:46.243Z,2.33
2018-03-11T20:59:16.086Z,2.43
2018-03-11T21:01:45.666Z,2.20
2018-03-11T21:04:15.573Z,3.40
2018-03-11T21:06:46.578Z,3.23
2018-03-11T21:09:17.501Z,2.30
2018-03-11T21:11:48.439Z,3.40
2018-03-11T21:14:18.066Z,4.57
2018-03-11T21:16:47.979Z,3.27
2018-03-11T21:19:18.130Z,3.23
2018-03-11T21:21:48.106Z,3.30
2018-03-11T21:24:18.720Z,2.83
2018-03-11T21:26:49.409Z,3.00
2018-03-11T21:29:19.472Z,4.80
2018-03-11T21:31:50.020Z,5.30
2018-03-11T21:34:20.205Z,4.60
2018-03-11T21:36:50.455Z,2.93
2018-03-11T21:39:21.057Z,2.67
2018-03-11T21:41:50.844Z,3.00
2018-03-11T21:44:21.421Z,4.60
2018-03-11T21:46:52.158Z,3.50
2018-03-11T21:49:22.849Z,3.50
2018-03-11T21:51:53.816Z,3.67
2018-03-11T21:54:23.836Z,3.20
2018-03-11T21:56:54.687Z,3.00
2018-03-11T21:59:24.371Z,3.80
2018-03-11T22:01:54.405Z,3.00
2018-03-11T22:04:25.042Z,2.93
2018-03-11T22:06:55.911Z,3.07
2018-03-11T22:09:26.015Z,2.60
2018-03-11T22:11:55.726Z,2.37
2018-03-11T22:14:25.592Z,2.70
2018-03-11T22:16:54.522Z,2.60
2018-03-11T22:19:22.983Z,3.70
2018-03-11T22:21:51.343Z,2.20
2018-03-11T22:24:20.467Z,2.77
2018-03-11T22:26:48.848Z,2.80
2018-03-11T22:29:17.124Z,2.73
2018-03-11T22:31:45.400Z,3.77
2018-03-11T22:34:13.660Z,2.83
2018-03-11T22:36:41.939Z,3.40
2018-03-11T22:39:10.192Z,2.63
2018-03-11T22:41:39.226Z,3.35
2018-03-11T22:44:07.488Z,2.60
2018-03-11T22:46:35.755Z,2.43
2018-03-11T22:49:04.010Z,2.60
2018-03-11T22:51:32.331Z,4.27
2018-03-11T22:54:00.580Z,3.20
2018-03-11T22:56:29.599Z,5.40
2018-03-11T22:58:57.976Z,5.40
2018-03-11T23:01:26.232Z,4.33
2018-03-11T23:03:54.536Z,3.70
2018-03-11T23:06:22.791Z,3.63
2018-03-11T23:08:51.888Z,3.40
2018-03-11T23:11:20.174Z,3.00
2018-03-11T23:13:48.426Z,3.17
2018-03-11T23:16:17.460Z,3.00
2018-03-11T23:19:03.653Z,4.73
2018-03-11T23:21:31.920Z,4.17
2018-03-11T23:24:00.197Z,4.20
2018-03-11T23:26:28.469Z,3.20
2018-03-11T23:28:56.734Z,3.50
2018-03-11T23:31:25.010Z,3.10
2018-03-11T23:33:53.308Z,3.60
2018-03-11T23:36:21.563Z,3.13
2018-03-11T23:38:49.824Z,2.50
2018-03-11T23:41:18.865Z,2.90
2018-03-11T23:43:47.213Z,2.60
2018-03-11T23:46:15.467Z,3.55
2018-03-11T23:48:44.499Z,2.40
2018-03-11T23:51:12.750Z,2.50
2018-03-11T23:53:40.996Z,3.13
2018-03-11T23:56:09.301Z,2.63
2018-03-11T23:58:37.588Z,2.50
